Time,TemperatureF,DewpointF,PressureIn,WindDirection,WindDirectionDegrees,WindSpeedMPH,WindSpeedGustMPH,Humidity,HourlyPrecipIn,Conditions,Clouds,dailyrainin,SoftwareType,DateUTC
2013-09-09 00:00:00,72.5,48.9,29.97,North,0,0.0,0.0,43,0.00,,---,99.99,VWS V14.01,2013-09-09 06:00:00,
2013-09-09 00:01:00,72.7,0.0,0.00,North,0,0.0,0.0,0,0.00,,---,0.00,VWS V14.01,2013-09-09 06:01:00,
2013-09-09 00:02:00,68.1,55.3,29.99,North,0,0.0,14.3,64,0.00,,---,0.00,VWS V14.01,2013-09-09 06:02:00,
2013-09-09 00:03:00,68.1,55.2,29.99,North,0,0.0,10.7,63,0.00,,---,0.00,VWS V14.01,2013-09-09 06:03:00,
2013-09-09 00:04:00,68.1,55.2,29.99,North,0,0.0,0.0,63,0.00,,---,0.00,VWS V14.01,2013-09-09 06:04:00,
2013-09-09 00:05:00,72.2,52.5,29.97,North,0,0.0,0.0,50,0.00,,---,7.37,VWS V14.01,2013-09-09 06:05:00,
2013-09-09 00:06:00,68.1,0.0,0.74,North,0,0.0,0.0,0,0.00,,---,0.00,VWS V14.01,2013-09-09 06:06:00,
2013-09-09 00:07:00,68.1,55.2,29.99,North,0,0.0,0.0,63,0.00,,---,0.00,VWS V14.01,2013-09-09 06:07:00,
2013-09-09 00:08:00,68.1,55.3,0.00,North,0,0.0,0.0,64,0.00,,---,0.00,VWS V14.01,2013-09-09 06:08:00,
2013-09-09 00:09:00,68.0,55.2,29.99,North,0,0.0,0.0,64,0.00,,---,0.00,VWS V14.01,2013-09-09 06:09:00,
2013-09-09 00:10:00,133.4,99.9,0.00,North,352,0.0,4.3,51,0.00,,---,0.00,VWS V14.01,2013-09-09 06:10:00,
2013-09-09 00:11:00,68.0,55.3,29.99,North,0,0.0,0.0,64,0.00,,---,0.00,VWS V14.01,2013-09-09 06:11:00,
2013-09-09 00:12:00,68.0,55.4,29.99,North,0,0.0,14.5,64,0.87,,---,0.00,VWS V14.01,2013-09-09 06:12:00,
2013-09-09 00:13:00,23.6,13.3,0.00,North,0,0.0,0.0,64,0.00,,---,0.00,VWS V14.01,2013-09-09 06:13:00,
2013-09-09 00:14:00,68.0,55.5,29.99,North,0,0.0,0.8,64,0.00,,---,0.00,VWS V14.01,2013-09-09 06:14:00,
2013-09-09 00:15:00,71.6,53.2,29.97,North,0,0.0,0.0,52,0.00,,---,0.00,VWS V14.01,2013-09-09 06:15:00,
2013-09-09 00:16:00,67.9,55.5,29.99,North,0,0.0,0.0,64,0.00,,---,0.00,VWS V14.01,2013-09-09 06:16:00,
2013-09-09 00:17:00,68.0,0.0,2.20,North,0,0.0,0.0,0,0.00,,---,0.00,VWS V14.01,2013-09-09 06:17:00,
2013-09-09 00:18:00,67.9,55.5,29.99,North,0,0.0,0.0,64,0.00,,---,0.00,VWS V14.01,2013-09-09 06:18:00,
2013-09-09 00:19:00,23.6,13.4,0.00,North,0,0.0,13.2,64,0.00,,---,0.00,VWS V14.01,2013-09-09 06:19:00,
2013-09-09 00:20:00,71.5,53.8,29.97,North,0,0.0,0.0,54,0.00,,---,0.00,VWS V14.01,2013-09-09 06:20:00,
2013-09-09 00:21:00,23.6,13.5,0.00,North,0,13.5,13.5,65,0.00,,---,0.00,VWS V14.01,2013-09-09 06:21:00,
2013-09-09 00:22:00,67.8,55.7,29.99,North,0,0.0,0.0,65,0.00,,---,0.00,VWS V14.01,2013-09-09 06:22:00,
2013-09-09 00:23:00,0.8,-8.1,0.00,North,353,0.0,0.0,65,0.00,,---,0.00,VWS V14.01,2013-09-09 06:23:00,
2013-09-09 00:24:00,67.7,55.7,29.99,North,0,0.0,11.2,65,0.00,,---,0.00,VWS V14.01,2013-09-09 06:24:00,
2013-09-09 00:25:00,61.1,0.0,0.74,North,0,10.4,15.5,0,0.00,,---,0.00,VWS V14.01,2013-09-09 06:25:00,
2013-09-09 00:26:00,67.7,55.7,29.99,North,0,0.0,0.0,65,0.00,,---,0.00,VWS V14.01,2013-09-09 06:26:00,
2013-09-09 00:27:00,71.8,0.0,0.74,NNW,332,0.0,0.0,0,0.00,,---,7.48,VWS V14.01,2013-09-09 06:27:00,
2013-09-09 00:28:00,49.7,38.6,29.99,North,0,0.0,0.0,65,0.00,,---,0.00,VWS V14.01,2013-09-09 06:28:00,
2013-09-09 00:29:00,67.6,55.6,29.99,North,0,0.0,0.0,65,0.00,,---,0.00,VWS V14.01,2013-09-09 06:29:00,
2013-09-09 00:30:00,70.9,54.2,29.98,North,0,0.0,10.6,56,0.00,,---,0.00,VWS V14.01,2013-09-09 06:30:00,
2013-09-09 00:31:00,67.5,55.6,29.99,North,0,0.0,13.9,66,0.00,,---,0.00,VWS V14.01,2013-09-09 06:31:00,
2013-09-09 00:32:00,67.5,55.7,29.99,North,0,0.0,0.0,66,0.87,,---,0.00,VWS V14.01,2013-09-09 06:32:00,
2013-09-09 00:33:00,67.5,55.7,29.99,North,0,0.0,10.7,66,0.00,,---,0.00,VWS V14.01,2013-09-09 06:33:00,
2013-09-09 00:34:00,67.4,55.6,29.99,North,0,0.0,0.0,66,0.00,,---,0.00,VWS V14.01,2013-09-09 06:34:00,
2013-09-09 00:35:00,70.6,54.2,29.98,North,0,0.0,8.0,56,0.00,,---,0.00,VWS V14.01,2013-09-09 06:35:00,
2013-09-09 00:36:00,67.4,55.7,29.99,North,0,0.0,10.2,66,0.00,,---,0.00,VWS V14.01,2013-09-09 06:36:00,
2013-09-09 00:37:00,67.3,55.6,30.00,North,0,0.0,0.0,66,0.00,,---,0.00,VWS V14.01,2013-09-09 06:37:00,
2013-09-09 00:38:00,67.3,55.6,29.99,North,0,0.0,0.0,66,0.00,,---,0.00,VWS V14.01,2013-09-09 06:38:00,
2013-09-09 00:39:00,67.3,0.0,30.22,North,0,0.0,10.2,0,0.00,,---,0.00,VWS V14.01,2013-09-09 06:39:00,
2013-09-09 00:40:00,70.4,54.4,29.98,North,0,0.0,12.9,57,0.00,,---,0.00,VWS V14.01,2013-09-09 06:40:00,
2013-09-09 00:42:00,67.3,55.7,30.00,North,0,0.0,0.0,66,0.00,,---,0.00,VWS V14.01,2013-09-09 06:42:00,
2013-09-09 00:43:00,67.3,55.7,30.00,North,0,0.0,15.6,66,0.00,,---,0.00,VWS V14.01,2013-09-09 06:43:00,
2013-09-09 00:44:00,67.2,55.7,30.00,North,0,0.0,10.9,66,0.00,,---,0.00,VWS V14.01,2013-09-09 06:44:00,
2013-09-09 00:45:00,70.1,54.7,29.98,North,0,0.0,0.0,58,0.00,,---,0.00,VWS V14.01,2013-09-09 06:45:00,
2013-09-09 00:46:00,67.0,55.6,30.00,North,0,0.0,11.0,67,0.00,,---,0.00,VWS V14.01,2013-09-09 06:46:00,
2013-09-09 00:50:00,70.0,54.8,29.98,North,0,0.0,0.0,58,0.00,,---,0.00,VWS V14.01,2013-09-09 06:50:00,
2013-09-09 00:55:00,69.8,0.0,29.98,North,0,0.0,0.0,0,0.00,,---,0.00,VWS V14.01,2013-09-09 06:55:00,
2013-09-09 01:00:00,69.6,54.9,29.98,North,0,0.0,0.0,60,0.00,,---,0.00,VWS V14.01,2013-09-09 07:00:00,
2013-09-09 01:05:00,69.4,55.1,29.98,North,0,0.0,15.5,60,0.00,,---,0.00,VWS V14.01,2013-09-09 07:05:00,
2013-09-09 01:10:00,69.2,57.1,29.98,North,0,0.0,15.5,65,0.00,,---,0.00,VWS V14.01,2013-09-09 07:10:00,
2013-09-09 01:15:00,69.1,55.5,29.98,North,0,0.0,12.1,62,0.00,,---,0.00,VWS V14.01,2013-09-09 07:15:00,
2013-09-09 01:20:00,68.9,55.3,0.00,North,0,0.0,14.0,62,0.00,,---,0.00,VWS V14.01,2013-09-09 07:20:00,
2013-09-09 01:25:00,49.7,0.0,4.22,North,0,0.0,9.3,0,0.00,,---,0.00,VWS V14.01,2013-09-09 07:25:00,
2013-09-09 01:30:00,68.3,55.4,29.99,North,0,0.0,0.0,63,0.00,,---,14.35,VWS V14.01,2013-09-09 07:30:00,
2013-09-09 01:35:00,68.2,55.4,29.99,North,0,0.0,0.0,64,0.00,,---,7.15,VWS V14.01,2013-09-09 07:35:00,
2013-09-09 01:40:00,68.1,55.4,29.99,North,0,0.0,11.4,64,0.00,,---,0.10,VWS V14.01,2013-09-09 07:40:00,
2013-09-09 01:45:00,67.9,55.5,29.99,North,0,0.0,0.0,64,0.00,,---,0.00,VWS V14.01,2013-09-09 07:45:00,
2013-09-09 01:51:00,67.6,53.0,29.99,North,0,0.0,0.0,60,0.00,,---,0.00,VWS V14.01,2013-09-09 07:51:00,
2013-09-09 01:56:00,67.2,55.6,30.00,North,0,0.0,15.6,66,0.00,,---,6.87,VWS V14.01,2013-09-09 07:56:00,
2013-09-09 22:50:00,71.3,53.9,29.98,North,0,0.0,0.0,54,0.00,,---,0.00,VWS V14.01,2013-09-10 04:50:00,
2013-09-09 23:08:00,70.5,54.3,29.98,North,0,0.0,15.5,56,0.00,,---,13.88,VWS V14.01,2013-09-10 05:08:00,
2013-09-09 23:50:00,71.3,53.9,29.98,North,0,0.0,0.0,54,0.00,,---,0.00,VWS V14.01,2013-09-10 05:50:00,